sensor_id;sensor_type;location;lat;lon;timestamp;P1;durP1;ratioP1;P2;durP2;ratioP2
53710;SDS011;39605;52.704;6.752;2023-06-22T00:00:32;29.25;;;26.88;;
53710;SDS011;39605;52.704;6.752;2023-06-22T00:02:59;31.83;;;29.13;;
53710;SDS011;39605;52.704;6.752;2023-06-22T00:05:25;30.75;;;28.15;;
53710;SDS011;39605;52.704;6.752;2023-06-22T00:07:51;31.50;;;28.80;;
53710;SDS011;39605;52.704;6.752;2023-06-22T00:10:17;31.02;;;28.50;;
53710;SDS011;39605;52.704;6.752;2023-06-22T00:12:43;33.67;;;30.77;;
53710;SDS011;39605;52.704;6.752;2023-06-22T00:15:09;30.45;;;27.73;;
53710;SDS011;39605;52.704;6.752;2023-06-22T00:17:35;30.42;;;27.92;;
53710;SDS011;39605;52.704;6.752;2023-06-22T00:20:01;32.40;;;29.60;;
53710;SDS011;39605;52.704;6.752;2023-06-22T00:22:30;35.10;;;31.95;;
53710;SDS011;39605;52.704;6.752;2023-06-22T00:24:57;31.60;;;28.70;;
53710;SDS011;39605;52.704;6.752;2023-06-22T00:27:23;32.90;;;30.10;;
53710;SDS011;39605;52.704;6.752;2023-06-22T00:29:49;34.95;;;32.00;;
53710;SDS011;39605;52.704;6.752;2023-06-22T00:32:15;30.58;;;28.05;;
53710;SDS011;39605;52.704;6.752;2023-06-22T00:34:42;37.97;;;34.55;;
53710;SDS011;39605;52.704;6.752;2023-06-22T00:37:08;30.77;;;28.13;;
53710;SDS011;39605;52.704;6.752;2023-06-22T00:39:36;30.70;;;27.98;;
53710;SDS011;39605;52.704;6.752;2023-06-22T00:42:02;32.22;;;29.55;;
53710;SDS011;39605;52.704;6.752;2023-06-22T00:44:28;32.40;;;29.67;;
53710;SDS011;39605;52.704;6.752;2023-06-22T00:46:54;36.03;;;33.03;;
53710;SDS011;39605;52.704;6.752;2023-06-22T00:49:20;36.80;;;33.60;;
53710;SDS011;39605;52.704;6.752;2023-06-22T00:51:47;34.10;;;31.30;;
53710;SDS011;39605;52.704;6.752;2023-06-22T00:54:14;36.25;;;33.05;;
53710;SDS011;39605;52.704;6.752;2023-06-22T00:56:40;35.72;;;32.63;;
53710;SDS011;39605;52.704;6.752;2023-06-22T00:59:07;33.33;;;30.17;;
53710;SDS011;39605;52.704;6.752;2023-06-22T01:01:37;36.10;;;32.67;;
53710;SDS011;39605;52.704;6.752;2023-06-22T01:04:06;36.22;;;33.22;;
53710;SDS011;39605;52.704;6.752;2023-06-22T01:06:34;34.65;;;31.75;;
53710;SDS011;39605;52.704;6.752;2023-06-22T01:09:08;34.20;;;31.25;;
53710;SDS011;39605;52.704;6.752;2023-06-22T01:11:45;37.70;;;34.55;;
53710;SDS011;39605;52.704;6.752;2023-06-22T01:14:36;37.70;;;34.40;;
53710;SDS011;39605;52.704;6.752;2023-06-22T01:17:03;37.75;;;34.55;;
53710;SDS011;39605;52.704;6.752;2023-06-22T01:19:38;35.38;;;32.35;;
53710;SDS011;39605;52.704;6.752;2023-06-22T01:22:06;33.58;;;30.88;;
53710;SDS011;39605;52.704;6.752;2023-06-22T01:29:55;34.63;;;31.88;;
53710;SDS011;39605;52.704;6.752;2023-06-22T01:32:30;37.15;;;34.05;;
53710;SDS011;39605;52.704;6.752;2023-06-22T01:34:58;39.13;;;35.63;;
53710;SDS011;39605;52.704;6.752;2023-06-22T01:37:26;38.70;;;35.45;;
53710;SDS011;39605;52.704;6.752;2023-06-22T01:39:53;35.83;;;32.83;;
53710;SDS011;39605;52.704;6.752;2023-06-22T01:42:19;34.47;;;31.58;;
53710;SDS011;39605;52.704;6.752;2023-06-22T01:44:45;33.55;;;30.85;;
53710;SDS011;39605;52.704;6.752;2023-06-22T01:47:12;37.88;;;34.70;;
53710;SDS011;39605;52.704;6.752;2023-06-22T01:49:39;35.65;;;32.75;;
53710;SDS011;39605;52.704;6.752;2023-06-22T01:52:06;39.85;;;36.35;;
53710;SDS011;39605;52.704;6.752;2023-06-22T01:54:32;40.53;;;36.97;;
53710;SDS011;39605;52.704;6.752;2023-06-22T01:56:58;34.05;;;31.35;;
53710;SDS011;39605;52.704;6.752;2023-06-22T02:01:57;36.90;;;33.72;;
53710;SDS011;39605;52.704;6.752;2023-06-22T02:04:26;37.78;;;34.60;;
53710;SDS011;39605;52.704;6.752;2023-06-22T02:06:55;38.30;;;35.08;;
53710;SDS011;39605;52.704;6.752;2023-06-22T02:09:22;35.28;;;32.40;;
53710;SDS011;39605;52.704;6.752;2023-06-22T02:11:49;37.90;;;34.85;;
53710;SDS011;39605;52.704;6.752;2023-06-22T02:14:18;35.55;;;32.63;;
53710;SDS011;39605;52.704;6.752;2023-06-22T02:16:45;36.05;;;33.03;;
53710;SDS011;39605;52.704;6.752;2023-06-22T02:19:11;37.55;;;34.38;;
53710;SDS011;39605;52.704;6.752;2023-06-22T02:21:37;37.85;;;34.53;;
53710;SDS011;39605;52.704;6.752;2023-06-22T02:24:04;36.05;;;33.05;;
53710;SDS011;39605;52.704;6.752;2023-06-22T02:26:30;40.17;;;36.80;;
53710;SDS011;39605;52.704;6.752;2023-06-22T02:28:56;38.38;;;35.20;;
53710;SDS011;39605;52.704;6.752;2023-06-22T02:31:22;39.47;;;36.08;;
53710;SDS011;39605;52.704;6.752;2023-06-22T02:33:56;38.03;;;34.75;;
53710;SDS011;39605;52.704;6.752;2023-06-22T02:36:23;35.38;;;32.45;;
53710;SDS011;39605;52.704;6.752;2023-06-22T02:38:50;39.97;;;36.40;;
53710;SDS011;39605;52.704;6.752;2023-06-22T02:41:16;35.22;;;32.38;;
53710;SDS011;39605;52.704;6.752;2023-06-22T02:43:48;41.17;;;37.75;;
53710;SDS011;39605;52.704;6.752;2023-06-22T02:46:14;38.88;;;35.47;;
53710;SDS011;39605;52.704;6.752;2023-06-22T02:48:40;36.80;;;33.67;;
53710;SDS011;39605;52.704;6.752;2023-06-22T02:51:06;38.00;;;34.88;;
53710;SDS011;39605;52.704;6.752;2023-06-22T02:53:32;39.45;;;36.22;;
53710;SDS011;39605;52.704;6.752;2023-06-22T02:55:58;41.50;;;38.08;;
53710;SDS011;39605;52.704;6.752;2023-06-22T02:58:26;38.70;;;35.30;;
53710;SDS011;39605;52.704;6.752;2023-06-22T03:00:52;36.78;;;33.67;;
53710;SDS011;39605;52.704;6.752;2023-06-22T03:03:21;41.20;;;37.53;;
53710;SDS011;39605;52.704;6.752;2023-06-22T03:05:47;39.70;;;36.13;;
53710;SDS011;39605;52.704;6.752;2023-06-22T03:08:13;40.25;;;36.65;;
53710;SDS011;39605;52.704;6.752;2023-06-22T03:10:39;38.72;;;35.55;;
53710;SDS011;39605;52.704;6.752;2023-06-22T03:13:06;42.03;;;38.55;;
53710;SDS011;39605;52.704;6.752;2023-06-22T03:15:32;41.22;;;37.45;;
53710;SDS011;39605;52.704;6.752;2023-06-22T03:17:58;41.45;;;37.92;;
53710;SDS011;39605;52.704;6.752;2023-06-22T03:20:24;39.38;;;36.13;;
53710;SDS011;39605;52.704;6.752;2023-06-22T03:22:51;39.75;;;36.28;;
53710;SDS011;39605;52.704;6.752;2023-06-22T03:25:18;41.85;;;38.28;;
53710;SDS011;39605;52.704;6.752;2023-06-22T03:27:44;42.08;;;38.47;;
53710;SDS011;39605;52.704;6.752;2023-06-22T03:30:11;39.45;;;36.03;;
53710;SDS011;39605;52.704;6.752;2023-06-22T03:32:37;41.97;;;38.47;;
53710;SDS011;39605;52.704;6.752;2023-06-22T03:35:03;47.60;;;43.30;;
53710;SDS011;39605;52.704;6.752;2023-06-22T03:37:31;43.60;;;39.95;;
53710;SDS011;39605;52.704;6.752;2023-06-22T03:39:57;41.35;;;37.78;;
53710;SDS011;39605;52.704;6.752;2023-06-22T03:42:23;45.70;;;41.63;;
53710;SDS011;39605;52.704;6.752;2023-06-22T03:44:49;39.42;;;36.15;;
53710;SDS011;39605;52.704;6.752;2023-06-22T03:47:15;42.83;;;39.17;;
53710;SDS011;39605;52.704;6.752;2023-06-22T03:49:41;38.97;;;35.88;;
53710;SDS011;39605;52.704;6.752;2023-06-22T03:52:07;41.35;;;37.88;;
53710;SDS011;39605;52.704;6.752;2023-06-22T03:54:35;43.15;;;39.55;;
53710;SDS011;39605;52.704;6.752;2023-06-22T03:57:02;47.08;;;42.80;;
53710;SDS011;39605;52.704;6.752;2023-06-22T03:59:28;42.08;;;38.63;;
53710;SDS011;39605;52.704;6.752;2023-06-22T04:01:54;44.97;;;40.95;;
53710;SDS011;39605;52.704;6.752;2023-06-22T04:04:20;47.15;;;42.88;;
53710;SDS011;39605;52.704;6.752;2023-06-22T04:06:46;45.72;;;41.83;;
53710;SDS011;39605;52.704;6.752;2023-06-22T04:09:12;44.38;;;40.58;;
53710;SDS011;39605;52.704;6.752;2023-06-22T04:11:38;43.83;;;40.15;;
53710;SDS011;39605;52.704;6.752;2023-06-22T04:14:04;45.30;;;41.47;;
53710;SDS011;39605;52.704;6.752;2023-06-22T04:16:30;42.80;;;39.13;;
53710;SDS011;39605;52.704;6.752;2023-06-22T04:18:56;41.55;;;37.95;;
53710;SDS011;39605;52.704;6.752;2023-06-22T04:21:22;39.45;;;36.13;;
53710;SDS011;39605;52.704;6.752;2023-06-22T04:23:48;44.95;;;41.28;;
53710;SDS011;39605;52.704;6.752;2023-06-22T04:26:14;44.50;;;40.67;;
53710;SDS011;39605;52.704;6.752;2023-06-22T04:28:41;41.15;;;37.75;;
53710;SDS011;39605;52.704;6.752;2023-06-22T04:31:07;42.53;;;38.65;;
53710;SDS011;39605;52.704;6.752;2023-06-22T04:33:33;43.25;;;39.55;;
53710;SDS011;39605;52.704;6.752;2023-06-22T04:35:59;43.38;;;39.50;;
53710;SDS011;39605;52.704;6.752;2023-06-22T04:38:29;41.58;;;38.15;;
53710;SDS011;39605;52.704;6.752;2023-06-22T04:40:58;41.03;;;37.45;;
53710;SDS011;39605;52.704;6.752;2023-06-22T04:43:26;44.25;;;40.45;;
53710;SDS011;39605;52.704;6.752;2023-06-22T04:45:56;41.67;;;38.20;;
53710;SDS011;39605;52.704;6.752;2023-06-22T04:48:28;40.90;;;37.47;;
53710;SDS011;39605;52.704;6.752;2023-06-22T04:50:57;43.78;;;39.90;;
53710;SDS011;39605;52.704;6.752;2023-06-22T04:53:28;42.05;;;38.45;;
53710;SDS011;39605;52.704;6.752;2023-06-22T04:55:55;47.65;;;43.50;;
53710;SDS011;39605;52.704;6.752;2023-06-22T04:58:21;45.80;;;41.83;;
53710;SDS011;39605;52.704;6.752;2023-06-22T05:00:47;47.72;;;43.67;;
53710;SDS011;39605;52.704;6.752;2023-06-22T05:03:16;52.95;;;48.15;;
53710;SDS011;39605;52.704;6.752;2023-06-22T05:05:43;47.10;;;43.03;;
53710;SDS011;39605;52.704;6.752;2023-06-22T05:08:09;48.33;;;44.08;;
53710;SDS011;39605;52.704;6.752;2023-06-22T05:10:35;50.13;;;45.72;;
53710;SDS011;39605;52.704;6.752;2023-06-22T05:13:01;49.17;;;44.88;;
53710;SDS011;39605;52.704;6.752;2023-06-22T05:15:27;47.55;;;43.53;;
53710;SDS011;39605;52.704;6.752;2023-06-22T05:17:55;48.97;;;44.60;;
53710;SDS011;39605;52.704;6.752;2023-06-22T05:20:23;48.63;;;44.45;;
53710;SDS011;39605;52.704;6.752;2023-06-22T05:22:49;45.65;;;41.63;;
53710;SDS011;39605;52.704;6.752;2023-06-22T05:25:15;47.40;;;43.22;;
53710;SDS011;39605;52.704;6.752;2023-06-22T05:27:41;47.63;;;43.45;;
53710;SDS011;39605;52.704;6.752;2023-06-22T05:30:09;48.30;;;44.13;;
53710;SDS011;39605;52.704;6.752;2023-06-22T05:32:36;50.15;;;45.80;;
53710;SDS011;39605;52.704;6.752;2023-06-22T05:35:03;48.80;;;44.63;;
53710;SDS011;39605;52.704;6.752;2023-06-22T05:37:29;50.22;;;45.63;;
53710;SDS011;39605;52.704;6.752;2023-06-22T05:39:55;48.58;;;44.17;;
53710;SDS011;39605;52.704;6.752;2023-06-22T05:42:22;47.22;;;42.90;;
53710;SDS011;39605;52.704;6.752;2023-06-22T05:44:50;46.05;;;41.97;;
53710;SDS011;39605;52.704;6.752;2023-06-22T05:47:16;44.22;;;40.20;;
53710;SDS011;39605;52.704;6.752;2023-06-22T05:49:42;42.50;;;38.70;;
53710;SDS011;39605;52.704;6.752;2023-06-22T05:52:08;42.35;;;38.50;;
53710;SDS011;39605;52.704;6.752;2023-06-22T05:54:35;39.58;;;36.13;;
53710;SDS011;39605;52.704;6.752;2023-06-22T05:57:01;40.20;;;36.55;;
53710;SDS011;39605;52.704;6.752;2023-06-22T05:59:27;42.13;;;38.38;;
53710;SDS011;39605;52.704;6.752;2023-06-22T06:01:53;39.85;;;36.35;;
53710;SDS011;39605;52.704;6.752;2023-06-22T06:04:19;38.42;;;35.22;;
53710;SDS011;39605;52.704;6.752;2023-06-22T06:06:45;37.47;;;34.40;;
53710;SDS011;39605;52.704;6.752;2023-06-22T06:09:12;38.35;;;34.95;;
53710;SDS011;39605;52.704;6.752;2023-06-22T06:11:39;37.85;;;34.65;;
53710;SDS011;39605;52.704;6.752;2023-06-22T06:14:05;37.47;;;34.28;;
53710;SDS011;39605;52.704;6.752;2023-06-22T06:16:31;37.28;;;34.25;;
53710;SDS011;39605;52.704;6.752;2023-06-22T06:18:57;36.05;;;33.15;;
53710;SDS011;39605;52.704;6.752;2023-06-22T06:21:23;37.35;;;34.08;;
53710;SDS011;39605;52.704;6.752;2023-06-22T06:23:49;33.08;;;30.40;;
53710;SDS011;39605;52.704;6.752;2023-06-22T06:26:16;32.38;;;29.77;;
53710;SDS011;39605;52.704;6.752;2023-06-22T06:28:45;31.88;;;29.10;;
53710;SDS011;39605;52.704;6.752;2023-06-22T06:31:11;32.13;;;29.42;;
53710;SDS011;39605;52.704;6.752;2023-06-22T06:33:42;31.77;;;29.33;;
53710;SDS011;39605;52.704;6.752;2023-06-22T06:36:08;33.20;;;30.38;;
53710;SDS011;39605;52.704;6.752;2023-06-22T06:38:34;29.38;;;27.05;;
53710;SDS011;39605;52.704;6.752;2023-06-22T06:41:00;30.10;;;27.70;;
53710;SDS011;39605;52.704;6.752;2023-06-22T06:43:26;24.35;;;22.42;;
53710;SDS011;39605;52.704;6.752;2023-06-22T06:45:52;20.85;;;19.15;;
53710;SDS011;39605;52.704;6.752;2023-06-22T06:48:18;17.70;;;16.42;;
53710;SDS011;39605;52.704;6.752;2023-06-22T06:50:44;17.67;;;15.98;;
53710;SDS011;39605;52.704;6.752;2023-06-22T06:53:10;16.45;;;15.15;;
53710;SDS011;39605;52.704;6.752;2023-06-22T06:55:36;16.10;;;14.70;;
53710;SDS011;39605;52.704;6.752;2023-06-22T06:58:02;15.27;;;14.18;;
53710;SDS011;39605;52.704;6.752;2023-06-22T07:00:33;14.82;;;13.52;;
53710;SDS011;39605;52.704;6.752;2023-06-22T07:03:01;14.32;;;13.30;;
53710;SDS011;39605;52.704;6.752;2023-06-22T07:05:27;13.70;;;12.60;;
53710;SDS011;39605;52.704;6.752;2023-06-22T07:07:53;11.75;;;10.95;;
53710;SDS011;39605;52.704;6.752;2023-06-22T07:10:19;13.85;;;12.63;;
53710;SDS011;39605;52.704;6.752;2023-06-22T07:12:45;12.35;;;11.18;;
53710;SDS011;39605;52.704;6.752;2023-06-22T07:15:11;13.02;;;11.68;;
53710;SDS011;39605;52.704;6.752;2023-06-22T07:17:38;10.50;;;9.70;;
53710;SDS011;39605;52.704;6.752;2023-06-22T07:20:07;10.48;;;9.63;;
53710;SDS011;39605;52.704;6.752;2023-06-22T07:22:41;10.45;;;9.65;;
53710;SDS011;39605;52.704;6.752;2023-06-22T07:25:07;10.45;;;9.65;;
53710;SDS011;39605;52.704;6.752;2023-06-22T07:27:39;10.52;;;9.52;;
53710;SDS011;39605;52.704;6.752;2023-06-22T07:30:09;9.57;;;8.65;;
53710;SDS011;39605;52.704;6.752;2023-06-22T07:32:35;9.48;;;8.70;;
53710;SDS011;39605;52.704;6.752;2023-06-22T07:35:01;8.40;;;7.70;;
53710;SDS011;39605;52.704;6.752;2023-06-22T07:37:29;10.32;;;9.52;;
53710;SDS011;39605;52.704;6.752;2023-06-22T07:39:55;10.60;;;9.60;;
53710;SDS011;39605;52.704;6.752;2023-06-22T07:42:25;11.35;;;10.55;;
53710;SDS011;39605;52.704;6.752;2023-06-22T07:44:51;10.45;;;9.38;;
53710;SDS011;39605;52.704;6.752;2023-06-22T07:47:17;9.57;;;8.77;;
53710;SDS011;39605;52.704;6.752;2023-06-22T07:49:44;10.15;;;9.23;;
53710;SDS011;39605;52.704;6.752;2023-06-22T07:52:10;12.48;;;10.25;;
53710;SDS011;39605;52.704;6.752;2023-06-22T07:54:37;9.13;;;8.43;;
53710;SDS011;39605;52.704;6.752;2023-06-22T07:57:03;8.93;;;8.32;;
53710;SDS011;39605;52.704;6.752;2023-06-22T07:59:30;10.57;;;9.68;;
53710;SDS011;39605;52.704;6.752;2023-06-22T08:01:56;9.68;;;8.98;;
53710;SDS011;39605;52.704;6.752;2023-06-22T08:04:22;9.60;;;8.90;;
53710;SDS011;39605;52.704;6.752;2023-06-22T08:06:48;8.48;;;7.75;;
53710;SDS011;39605;52.704;6.752;2023-06-22T08:09:14;9.95;;;9.15;;
53710;SDS011;39605;52.704;6.752;2023-06-22T08:11:40;9.93;;;9.15;;
53710;SDS011;39605;52.704;6.752;2023-06-22T08:14:06;10.57;;;9.88;;
53710;SDS011;39605;52.704;6.752;2023-06-22T08:16:32;11.55;;;10.65;;
53710;SDS011;39605;52.704;6.752;2023-06-22T08:18:58;10.93;;;9.98;;
53710;SDS011;39605;52.704;6.752;2023-06-22T08:21:24;11.02;;;10.10;;
53710;SDS011;39605;52.704;6.752;2023-06-22T08:23:51;9.20;;;8.50;;
53710;SDS011;39605;52.704;6.752;2023-06-22T08:26:17;9.65;;;8.85;;
53710;SDS011;39605;52.704;6.752;2023-06-22T08:28:43;9.15;;;8.35;;
53710;SDS011;39605;52.704;6.752;2023-06-22T08:31:09;9.55;;;8.85;;
53710;SDS011;39605;52.704;6.752;2023-06-22T08:33:39;9.30;;;8.57;;
53710;SDS011;39605;52.704;6.752;2023-06-22T08:36:05;7.75;;;7.15;;
53710;SDS011;39605;52.704;6.752;2023-06-22T08:38:33;9.20;;;8.55;;
53710;SDS011;39605;52.704;6.752;2023-06-22T08:40:59;8.50;;;7.88;;
53710;SDS011;39605;52.704;6.752;2023-06-22T08:43:26;9.13;;;8.43;;
53710;SDS011;39605;52.704;6.752;2023-06-22T08:45:52;13.57;;;8.35;;
53710;SDS011;39605;52.704;6.752;2023-06-22T08:48:18;8.88;;;8.13;;
53710;SDS011;39605;52.704;6.752;2023-06-22T08:50:44;7.60;;;7.00;;
53710;SDS011;39605;52.704;6.752;2023-06-22T08:53:10;8.70;;;8.07;;
53710;SDS011;39605;52.704;6.752;2023-06-22T08:55:36;7.75;;;7.25;;
53710;SDS011;39605;52.704;6.752;2023-06-22T08:58:02;9.75;;;8.88;;
53710;SDS011;39605;52.704;6.752;2023-06-22T09:00:29;8.57;;;7.88;;
53710;SDS011;39605;52.704;6.752;2023-06-22T09:02:57;7.63;;;6.93;;
53710;SDS011;39605;52.704;6.752;2023-06-22T09:05:24;8.20;;;7.10;;
53710;SDS011;39605;52.704;6.752;2023-06-22T09:07:51;7.88;;;7.28;;
53710;SDS011;39605;52.704;6.752;2023-06-22T09:10:19;7.82;;;7.28;;
53710;SDS011;39605;52.704;6.752;2023-06-22T09:12:45;8.70;;;8.00;;
53710;SDS011;39605;52.704;6.752;2023-06-22T09:15:11;6.57;;;6.05;;
53710;SDS011;39605;52.704;6.752;2023-06-22T09:17:38;7.70;;;7.05;;
53710;SDS011;39605;52.704;6.752;2023-06-22T09:20:04;8.07;;;7.47;;
53710;SDS011;39605;52.704;6.752;2023-06-22T09:22:31;9.02;;;8.30;;
53710;SDS011;39605;52.704;6.752;2023-06-22T09:24:58;9.02;;;8.43;;
53710;SDS011;39605;52.704;6.752;2023-06-22T09:27:25;7.93;;;7.32;;
53710;SDS011;39605;52.704;6.752;2023-06-22T09:29:51;6.55;;;6.07;;
53710;SDS011;39605;52.704;6.752;2023-06-22T09:32:17;8.18;;;7.47;;
53710;SDS011;39605;52.704;6.752;2023-06-22T09:34:43;8.30;;;7.68;;
53710;SDS011;39605;52.704;6.752;2023-06-22T09:37:09;7.00;;;6.60;;
53710;SDS011;39605;52.704;6.752;2023-06-22T09:39:35;7.35;;;6.75;;
53710;SDS011;39605;52.704;6.752;2023-06-22T09:42:02;8.55;;;7.88;;
53710;SDS011;39605;52.704;6.752;2023-06-22T09:44:28;5.88;;;5.47;;
53710;SDS011;39605;52.704;6.752;2023-06-22T09:46:54;8.13;;;7.55;;
53710;SDS011;39605;52.704;6.752;2023-06-22T09:49:20;7.47;;;6.90;;
53710;SDS011;39605;52.704;6.752;2023-06-22T09:51:46;8.00;;;7.40;;
53710;SDS011;39605;52.704;6.752;2023-06-22T09:54:12;6.20;;;5.78;;
53710;SDS011;39605;52.704;6.752;2023-06-22T09:56:38;6.40;;;5.85;;
53710;SDS011;39605;52.704;6.752;2023-06-22T09:59:04;6.85;;;6.35;;
53710;SDS011;39605;52.704;6.752;2023-06-22T10:01:30;6.07;;;5.68;;
53710;SDS011;39605;52.704;6.752;2023-06-22T10:03:56;7.95;;;7.40;;
53710;SDS011;39605;52.704;6.752;2023-06-22T10:06:23;8.27;;;7.60;;
53710;SDS011;39605;52.704;6.752;2023-06-22T10:08:50;6.53;;;6.03;;
53710;SDS011;39605;52.704;6.752;2023-06-22T10:11:16;7.40;;;6.80;;
53710;SDS011;39605;52.704;6.752;2023-06-22T10:13:42;5.65;;;5.15;;
53710;SDS011;39605;52.704;6.752;2023-06-22T10:16:08;7.07;;;6.68;;
53710;SDS011;39605;52.704;6.752;2023-06-22T10:18:35;6.45;;;5.95;;
53710;SDS011;39605;52.704;6.752;2023-06-22T10:21:01;5.32;;;4.90;;
53710;SDS011;39605;52.704;6.752;2023-06-22T10:23:27;6.35;;;5.82;;
53710;SDS011;39605;52.704;6.752;2023-06-22T10:25:53;5.88;;;5.47;;
53710;SDS011;39605;52.704;6.752;2023-06-22T10:28:22;5.28;;;4.90;;
53710;SDS011;39605;52.704;6.752;2023-06-22T10:30:48;5.00;;;4.70;;
53710;SDS011;39605;52.704;6.752;2023-06-22T10:33:14;6.50;;;5.82;;
53710;SDS011;39605;52.704;6.752;2023-06-22T10:35:40;4.72;;;4.32;;
53710;SDS011;39605;52.704;6.752;2023-06-22T10:38:06;4.75;;;4.43;;
53710;SDS011;39605;52.704;6.752;2023-06-22T10:40:33;5.00;;;4.60;;
53710;SDS011;39605;52.704;6.752;2023-06-22T10:42:59;4.70;;;4.30;;
53710;SDS011;39605;52.704;6.752;2023-06-22T10:45:25;4.85;;;4.57;;
53710;SDS011;39605;52.704;6.752;2023-06-22T10:47:52;5.03;;;4.63;;
53710;SDS011;39605;52.704;6.752;2023-06-22T10:50:18;3.97;;;3.35;;
53710;SDS011;39605;52.704;6.752;2023-06-22T10:52:45;3.50;;;3.30;;
53710;SDS011;39605;52.704;6.752;2023-06-22T10:55:11;3.35;;;2.80;;
53710;SDS011;39605;52.704;6.752;2023-06-22T10:57:37;4.32;;;3.88;;
53710;SDS011;39605;52.704;6.752;2023-06-22T11:00:07;3.63;;;3.30;;
53710;SDS011;39605;52.704;6.752;2023-06-22T11:02:34;4.13;;;3.28;;
53710;SDS011;39605;52.704;6.752;2023-06-22T11:05:00;4.82;;;4.55;;
53710;SDS011;39605;52.704;6.752;2023-06-22T11:07:26;4.85;;;4.45;;
53710;SDS011;39605;52.704;6.752;2023-06-22T11:09:54;4.35;;;4.05;;
53710;SDS011;39605;52.704;6.752;2023-06-22T11:12:20;3.97;;;3.67;;
53710;SDS011;39605;52.704;6.752;2023-06-22T11:14:46;3.03;;;2.75;;
53710;SDS011;39605;52.704;6.752;2023-06-22T11:17:12;3.53;;;3.25;;
53710;SDS011;39605;52.704;6.752;2023-06-22T11:19:38;4.15;;;3.85;;
53710;SDS011;39605;52.704;6.752;2023-06-22T11:22:04;3.38;;;3.17;;
53710;SDS011;39605;52.704;6.752;2023-06-22T11:24:30;4.63;;;4.32;;
53710;SDS011;39605;52.704;6.752;2023-06-22T11:26:57;2.90;;;2.67;;
53710;SDS011;39605;52.704;6.752;2023-06-22T11:29:23;3.53;;;3.20;;
53710;SDS011;39605;52.704;6.752;2023-06-22T11:31:49;4.28;;;3.63;;
53710;SDS011;39605;52.704;6.752;2023-06-22T11:34:15;4.18;;;2.83;;
53710;SDS011;39605;52.704;6.752;2023-06-22T11:36:42;3.35;;;3.15;;
53710;SDS011;39605;52.704;6.752;2023-06-22T11:39:09;4.28;;;3.97;;
53710;SDS011;39605;52.704;6.752;2023-06-22T11:41:35;4.60;;;4.20;;
53710;SDS011;39605;52.704;6.752;2023-06-22T11:44:01;3.83;;;2.92;;
53710;SDS011;39605;52.704;6.752;2023-06-22T11:46:29;3.90;;;3.60;;
53710;SDS011;39605;52.704;6.752;2023-06-22T11:48:56;3.30;;;3.10;;
53710;SDS011;39605;52.704;6.752;2023-06-22T11:51:23;3.63;;;3.42;;
53710;SDS011;39605;52.704;6.752;2023-06-22T11:53:49;4.43;;;4.07;;
53710;SDS011;39605;52.704;6.752;2023-06-22T11:56:15;3.80;;;3.60;;
53710;SDS011;39605;52.704;6.752;2023-06-22T11:58:41;3.08;;;2.88;;
53710;SDS011;39605;52.704;6.752;2023-06-22T12:01:07;4.47;;;3.42;;
53710;SDS011;39605;52.704;6.752;2023-06-22T12:03:33;4.95;;;4.45;;
53710;SDS011;39605;52.704;6.752;2023-06-22T12:05:59;4.47;;;3.85;;
53710;SDS011;39605;52.704;6.752;2023-06-22T12:08:26;3.70;;;3.40;;
53710;SDS011;39605;52.704;6.752;2023-06-22T12:10:52;3.40;;;3.20;;
53710;SDS011;39605;52.704;6.752;2023-06-22T12:13:19;2.65;;;2.35;;
53710;SDS011;39605;52.704;6.752;2023-06-22T12:15:45;2.53;;;2.33;;
53710;SDS011;39605;52.704;6.752;2023-06-22T12:18:11;3.17;;;2.95;;
53710;SDS011;39605;52.704;6.752;2023-06-22T12:20:40;3.50;;;3.20;;
53710;SDS011;39605;52.704;6.752;2023-06-22T12:23:06;2.70;;;2.50;;
53710;SDS011;39605;52.704;6.752;2023-06-22T12:25:32;2.50;;;2.30;;
53710;SDS011;39605;52.704;6.752;2023-06-22T12:27:58;4.10;;;3.90;;
53710;SDS011;39605;52.704;6.752;2023-06-22T12:30:24;4.78;;;3.50;;
53710;SDS011;39605;52.704;6.752;2023-06-22T12:32:50;3.00;;;2.70;;
53710;SDS011;39605;52.704;6.752;2023-06-22T12:35:16;4.07;;;3.28;;
53710;SDS011;39605;52.704;6.752;2023-06-22T12:37:42;3.40;;;2.35;;
53710;SDS011;39605;52.704;6.752;2023-06-22T12:40:09;3.83;;;3.20;;
53710;SDS011;39605;52.704;6.752;2023-06-22T12:42:35;2.92;;;1.98;;
53710;SDS011;39605;52.704;6.752;2023-06-22T12:45:01;3.42;;;2.47;;
53710;SDS011;39605;52.704;6.752;2023-06-22T12:47:27;2.80;;;2.65;;
53710;SDS011;39605;52.704;6.752;2023-06-22T12:49:53;1.80;;;1.70;;
53710;SDS011;39605;52.704;6.752;2023-06-22T12:52:19;2.65;;;1.48;;
53710;SDS011;39605;52.704;6.752;2023-06-22T12:54:45;1.63;;;1.52;;
53710;SDS011;39605;52.704;6.752;2023-06-22T12:57:11;1.95;;;1.70;;
53710;SDS011;39605;52.704;6.752;2023-06-22T12:59:38;2.88;;;2.10;;
53710;SDS011;39605;52.704;6.752;2023-06-22T13:02:04;2.30;;;2.20;;
53710;SDS011;39605;52.704;6.752;2023-06-22T13:04:30;3.15;;;2.03;;
53710;SDS011;39605;52.704;6.752;2023-06-22T13:06:56;2.28;;;2.08;;
53710;SDS011;39605;52.704;6.752;2023-06-22T13:09:22;2.30;;;1.63;;
53710;SDS011;39605;52.704;6.752;2023-06-22T13:11:48;2.95;;;1.70;;
53710;SDS011;39605;52.704;6.752;2023-06-22T13:14:14;3.15;;;1.90;;
53710;SDS011;39605;52.704;6.752;2023-06-22T13:16:41;4.18;;;1.38;;
53710;SDS011;39605;52.704;6.752;2023-06-22T13:19:07;8.35;;;1.83;;
53710;SDS011;39605;52.704;6.752;2023-06-22T13:21:33;10.02;;;2.42;;
53710;SDS011;39605;52.704;6.752;2023-06-22T13:23:59;6.72;;;2.55;;
53710;SDS011;39605;52.704;6.752;2023-06-22T13:26:26;4.93;;;1.95;;
53710;SDS011;39605;52.704;6.752;2023-06-22T13:28:53;4.97;;;2.30;;
53710;SDS011;39605;52.704;6.752;2023-06-22T13:31:19;5.30;;;1.80;;
53710;SDS011;39605;52.704;6.752;2023-06-22T13:33:46;6.47;;;1.90;;
53710;SDS011;39605;52.704;6.752;2023-06-22T13:36:14;3.05;;;2.42;;
53710;SDS011;39605;52.704;6.752;2023-06-22T13:38:40;3.95;;;2.00;;
53710;SDS011;39605;52.704;6.752;2023-06-22T13:41:06;4.65;;;2.35;;
53710;SDS011;39605;52.704;6.752;2023-06-22T13:43:32;5.30;;;2.58;;
53710;SDS011;39605;52.704;6.752;2023-06-22T13:45:58;4.15;;;2.10;;
53710;SDS011;39605;52.704;6.752;2023-06-22T13:48:24;2.78;;;1.67;;
53710;SDS011;39605;52.704;6.752;2023-06-22T13:50:51;3.75;;;1.95;;
53710;SDS011;39605;52.704;6.752;2023-06-22T13:53:17;2.13;;;1.85;;
53710;SDS011;39605;52.704;6.752;2023-06-22T13:55:43;2.50;;;2.30;;
53710;SDS011;39605;52.704;6.752;2023-06-22T13:58:09;2.28;;;2.13;;
53710;SDS011;39605;52.704;6.752;2023-06-22T14:00:35;3.75;;;2.38;;
53710;SDS011;39605;52.704;6.752;2023-06-22T14:03:01;3.55;;;2.10;;
53710;SDS011;39605;52.704;6.752;2023-06-22T14:05:27;2.60;;;2.40;;
53710;SDS011;39605;52.704;6.752;2023-06-22T14:07:53;2.45;;;2.33;;
53710;SDS011;39605;52.704;6.752;2023-06-22T14:10:19;2.63;;;2.40;;
53710;SDS011;39605;52.704;6.752;2023-06-22T14:12:46;3.22;;;2.28;;
53710;SDS011;39605;52.704;6.752;2023-06-22T14:15:12;2.47;;;2.28;;
53710;SDS011;39605;52.704;6.752;2023-06-22T14:17:38;3.65;;;2.30;;
53710;SDS011;39605;52.704;6.752;2023-06-22T14:20:04;2.08;;;1.98;;
53710;SDS011;39605;52.704;6.752;2023-06-22T14:22:32;4.28;;;2.63;;
53710;SDS011;39605;52.704;6.752;2023-06-22T14:25:00;3.65;;;2.30;;
53710;SDS011;39605;52.704;6.752;2023-06-22T14:27:26;2.63;;;2.33;;
53710;SDS011;39605;52.704;6.752;2023-06-22T14:29:52;3.88;;;3.15;;
53710;SDS011;39605;52.704;6.752;2023-06-22T14:32:18;3.10;;;3.00;;
53710;SDS011;39605;52.704;6.752;2023-06-22T14:34:44;2.88;;;2.53;;
53710;SDS011;39605;52.704;6.752;2023-06-22T14:37:10;3.75;;;3.38;;